createdAt,value
2023-02-09T00:02:11.057Z,100286.16
2023-02-09T00:04:38.309Z,100285.97
2023-02-09T00:07:05.632Z,100283.69
2023-02-09T00:09:33.697Z,100291.25
2023-02-09T00:12:16.929Z,100287.00
2023-02-09T00:14:45.642Z,100281.06
2023-02-09T00:17:13.665Z,100280.97
2023-02-09T00:19:42.051Z,100284.94
2023-02-09T00:22:10.779Z,100279.19
2023-02-09T00:24:38.530Z,100276.69
2023-02-09T00:27:05.905Z,100270.69
2023-02-09T00:29:35.364Z,100252.41
2023-02-09T00:32:04.333Z,100262.47
2023-02-09T00:34:33.122Z,100255.72
2023-02-09T00:37:01.162Z,100253.22
2023-02-09T00:39:30.804Z,100251.47
2023-02-09T00:42:13.642Z,100249.81
2023-02-09T00:44:40.770Z,100242.81
2023-02-09T00:47:10.587Z,100239.50
2023-02-09T00:49:40.795Z,100240.44
2023-02-09T00:52:10.036Z,100237.94
2023-02-09T00:54:37.578Z,100228.59
2023-02-09T00:57:06.460Z,100231.72
2023-02-09T00:59:36.762Z,100235.25
2023-02-09T01:02:05.989Z,100232.81
2023-02-09T01:04:34.196Z,100228.47
2023-02-09T01:07:02.923Z,100229.19
2023-02-09T01:09:32.092Z,100225.88
2023-02-09T01:12:04.589Z,100228.69
2023-02-09T01:14:32.980Z,100227.84
2023-02-09T01:17:02.559Z,100223.78
2023-02-09T01:19:32.085Z,100224.59
2023-02-09T01:22:01.015Z,100208.09
2023-02-09T01:24:29.840Z,100212.47
2023-02-09T01:26:57.899Z,100208.41
2023-02-09T01:29:26.028Z,100198.72
2023-02-09T01:31:55.658Z,100199.47
2023-02-09T01:34:24.408Z,100197.81
2023-02-09T01:36:53.519Z,100196.13
2023-02-09T01:39:21.860Z,100180.53
2023-02-09T01:41:51.821Z,100185.63
2023-02-09T01:44:20.229Z,100180.75
2023-02-09T01:46:47.969Z,100176.28
2023-02-09T01:49:24.735Z,100170.38
2023-02-09T01:51:59.742Z,100157.66
2023-02-09T01:54:33.074Z,100150.63
2023-02-09T01:57:06.191Z,100150.84
2023-02-09T01:59:37.801Z,100147.19
2023-02-09T02:02:08.917Z,100149.81
2023-02-09T02:04:37.729Z,100138.66
2023-02-09T02:07:14.716Z,100138.66
2023-02-09T02:09:43.248Z,100134.41
2023-02-09T02:12:11.576Z,100136.19
2023-02-09T02:14:40.867Z,100138.78
2023-02-09T02:17:35.742Z,100138.88
2023-02-09T02:20:38.276Z,100131.09
2023-02-09T02:23:36.900Z,100132.66
2023-02-09T02:26:38.868Z,100133.69
2023-02-09T02:29:26.940Z,100117.78
2023-02-09T02:32:11.144Z,100127.13
2023-02-09T02:34:43.656Z,100113.44
2023-02-09T02:37:28.051Z,100115.09
2023-02-09T02:40:21.606Z,100116.97
2023-02-09T02:43:01.441Z,100125.91
2023-02-09T02:45:51.071Z,100123.41
2023-02-09T02:48:39.958Z,100126.19
2023-02-09T02:51:11.592Z,100103.44
2023-02-09T02:53:42.899Z,100103.66
2023-02-09T02:56:17.647Z,100098.66
2023-02-09T02:58:49.759Z,100101.56
2023-02-09T03:01:22.265Z,100105.91
2023-02-09T03:03:52.769Z,100097.59
2023-02-09T03:06:19.634Z,100096.13
2023-02-09T03:08:50.785Z,100093.53
2023-02-09T03:11:20.770Z,100103.84
2023-02-09T03:14:20.355Z,100090.94
2023-02-09T03:17:04.396Z,100097.91
2023-02-09T03:19:43.638Z,100082.22
2023-02-09T03:22:33.459Z,100089.19
2023-02-09T03:25:03.382Z,100082.00
2023-02-09T03:27:39.179Z,100096.56
2023-02-09T03:30:10.350Z,100093.44
2023-02-09T03:32:41.875Z,100088.25
2023-02-09T03:35:13.113Z,100098.66
2023-02-09T03:37:42.509Z,100093.63
2023-02-09T03:40:11.140Z,100089.28
2023-02-09T03:42:42.090Z,100090.13
2023-02-09T03:45:10.689Z,100105.47
2023-02-09T03:47:40.122Z,100107.34
2023-02-09T03:50:08.985Z,100099.56
2023-02-09T03:52:36.684Z,100103.72
2023-02-09T03:55:05.978Z,100101.94
2023-02-09T03:57:35.216Z,100109.84
2023-02-09T04:00:04.325Z,100108.72
2023-02-09T04:02:32.573Z,100094.06
2023-02-09T04:04:59.362Z,100103.22
2023-02-09T04:07:28.199Z,100097.28
2023-02-09T04:09:58.258Z,100102.59
2023-02-09T04:12:26.930Z,100097.69
2023-02-09T04:14:57.187Z,100100.38
2023-02-09T04:17:25.497Z,100097.69
2023-02-09T04:19:54.438Z,100102.69
2023-02-09T04:22:21.791Z,100100.19
2023-02-09T04:24:50.304Z,100096.88
2023-02-09T04:27:17.535Z,100097.78
2023-02-09T04:29:44.425Z,100110.06
2023-02-09T04:32:12.721Z,100102.28
2023-02-09T04:34:42.279Z,100106.50
2023-02-09T04:37:11.434Z,100105.69
2023-02-09T04:39:40.117Z,100103.84
2023-02-09T04:42:10.081Z,100105.69
2023-02-09T04:44:37.541Z,100104.31
2023-02-09T04:47:05.785Z,100092.81
2023-02-09T04:49:34.512Z,100098.81
2023-02-09T04:52:03.164Z,100101.53
2023-02-09T04:54:33.354Z,100103.31
2023-02-09T04:57:15.650Z,100108.38
2023-02-09T04:59:45.093Z,100103.19
2023-02-09T05:02:13.574Z,100101.53
2023-02-09T05:04:43.595Z,100092.16
2023-02-09T05:07:11.619Z,100083.66
2023-02-09T05:09:39.433Z,100084.50
2023-02-09T05:12:11.153Z,100096.81
2023-02-09T05:14:38.741Z,100090.06
2023-02-09T05:17:07.936Z,100096.94
2023-02-09T05:19:36.798Z,100101.31
2023-02-09T05:22:04.999Z,100097.03
2023-02-09T05:24:34.392Z,100101.47
2023-02-09T05:27:02.594Z,100104.28
2023-02-09T05:29:29.788Z,100099.91
2023-02-09T05:31:57.811Z,100098.06
2023-02-09T05:34:25.714Z,100101.03
2023-02-09T05:36:54.290Z,100103.53
2023-02-09T05:39:24.109Z,100101.69
2023-02-09T05:42:08.532Z,100105.41
2023-02-09T05:44:36.331Z,100105.19
2023-02-09T05:47:04.483Z,100105.31
2023-02-09T05:49:33.351Z,100099.47
2023-02-09T05:52:03.413Z,100115.03
2023-02-09T05:54:31.465Z,100105.69
2023-02-09T05:57:00.873Z,100113.28
2023-02-09T05:59:28.380Z,100101.53
2023-02-09T06:01:56.766Z,100103.19
2023-02-09T06:04:26.395Z,100105.16
2023-02-09T06:06:56.544Z,100105.16
2023-02-09T06:09:25.271Z,100105.16
2023-02-09T06:11:54.184Z,100110.34
2023-02-09T06:14:23.934Z,100109.63
2023-02-09T06:16:52.539Z,100114.81
2023-02-09T06:19:22.734Z,100111.47
2023-02-09T06:21:49.737Z,100111.66
2023-02-09T06:24:18.587Z,100118.09
2023-02-09T06:26:46.465Z,100114.75
2023-02-09T06:29:15.920Z,100117.06
2023-02-09T06:31:43.163Z,100119.66
2023-02-09T06:34:11.389Z,100124.63
2023-02-09T06:36:40.122Z,100123.72
2023-02-09T06:39:10.943Z,100121.28
2023-02-09T06:41:40.664Z,100126.31
2023-02-09T06:44:09.508Z,100131.50
2023-02-09T06:46:36.857Z,100132.44
2023-02-09T06:49:04.400Z,100140.00
2023-02-09T06:51:33.765Z,100133.88
2023-02-09T06:54:01.720Z,100137.34
2023-02-09T06:56:29.472Z,100140.75
2023-02-09T06:58:56.361Z,100139.72
2023-02-09T07:01:25.058Z,100137.13
2023-02-09T07:03:52.052Z,100137.97
2023-02-09T07:06:22.430Z,100139.53
2023-02-09T07:08:51.435Z,100148.88
2023-02-09T07:11:19.845Z,100145.25
2023-02-09T07:13:48.264Z,100147.75
2023-02-09T07:16:17.064Z,100144.88
2023-02-09T07:18:45.861Z,100144.78
2023-02-09T07:21:18.521Z,100137.53
2023-02-09T07:23:47.915Z,100135.59
2023-02-09T07:26:18.061Z,100137.88
2023-02-09T07:28:45.635Z,100136.34
2023-02-09T07:31:16.553Z,100129.09
2023-02-09T07:33:45.991Z,100127.97
2023-02-09T07:36:16.477Z,100125.16
2023-02-09T07:38:44.836Z,100122.81
2023-02-09T07:41:16.539Z,100120.31
2023-02-09T07:43:45.121Z,100119.06
2023-02-09T07:46:17.938Z,100115.41
2023-02-09T07:48:45.186Z,100116.16
2023-02-09T07:51:16.112Z,100115.13
2023-02-09T07:53:45.827Z,100132.38
2023-02-09T07:56:15.516Z,100133.00
2023-02-09T07:58:43.902Z,100128.53
2023-02-09T08:01:14.384Z,100133.94
2023-02-09T08:03:46.941Z,100129.38
2023-02-09T08:06:40.985Z,100129.78
2023-02-09T08:09:10.857Z,100136.31
2023-02-09T08:11:45.810Z,100134.25
2023-02-09T08:14:19.218Z,100124.16
2023-02-09T08:16:50.008Z,100123.22
2023-02-09T08:19:24.377Z,100128.00
2023-02-09T08:21:53.908Z,100121.72
2023-02-09T08:24:22.649Z,100126.72
2023-02-09T08:26:51.177Z,100121.16
2023-02-09T08:29:19.307Z,100116.03
2023-02-09T08:31:48.352Z,100112.94
2023-02-09T08:34:16.821Z,100109.78
2023-02-09T08:36:45.798Z,100110.88
2023-02-09T08:39:13.224Z,100116.69
2023-02-09T08:41:43.393Z,100113.66
2023-02-09T08:44:14.634Z,100116.28
2023-02-09T08:46:44.176Z,100120.31
2023-02-09T08:49:14.576Z,100108.84
2023-02-09T08:51:43.358Z,100117.16
2023-02-09T08:54:12.475Z,100122.16
2023-02-09T08:56:42.799Z,100121.25
2023-02-09T08:59:11.422Z,100121.16
2023-02-09T09:01:41.236Z,100115.47
2023-02-09T09:04:10.889Z,100128.03
2023-02-09T09:06:38.198Z,100129.47
2023-02-09T09:09:06.856Z,100123.44
2023-02-09T09:11:35.399Z,100126.66
2023-02-09T09:14:07.038Z,100125.22
2023-02-09T09:16:34.830Z,100132.13
2023-02-09T09:19:05.753Z,100119.41
2023-02-09T09:21:34.347Z,100124.28
2023-02-09T09:24:02.999Z,100124.41
2023-02-09T09:26:30.659Z,100124.59
2023-02-09T09:28:58.996Z,100118.38
2023-02-09T09:31:27.041Z,100128.53
2023-02-09T09:33:56.795Z,100122.78
2023-02-09T09:36:24.790Z,100128.72
2023-02-09T09:38:52.272Z,100122.13
2023-02-09T09:41:21.750Z,100130.69
2023-02-09T09:43:49.506Z,100120.34
2023-02-09T09:46:23.209Z,100127.22
2023-02-09T09:48:54.957Z,100130.63
2023-02-09T09:51:45.409Z,100138.16
2023-02-09T09:54:18.851Z,100143.69
2023-02-09T09:56:46.700Z,100134.06
2023-02-09T09:59:19.533Z,100128.75
2023-02-09T10:01:50.893Z,100131.50
2023-02-09T10:04:22.264Z,100133.06
2023-02-09T10:06:59.700Z,100138.84
2023-02-09T10:09:39.261Z,100138.16
2023-02-09T10:12:23.458Z,100140.91
2023-02-09T10:14:51.389Z,100135.53
2023-02-09T10:17:19.562Z,100136.81
2023-02-09T10:20:08.207Z,100130.72
2023-02-09T10:22:35.965Z,100124.38
2023-02-09T10:25:24.805Z,100120.47
2023-02-09T10:27:51.778Z,100121.06
2023-02-09T10:30:28.779Z,100122.59
2023-02-09T10:33:01.255Z,100121.19
2023-02-09T10:35:47.257Z,100124.78
2023-02-09T10:38:19.364Z,100123.44
2023-02-09T10:40:48.427Z,100127.22
2023-02-09T10:43:33.480Z,100120.88
2023-02-09T10:46:04.033Z,100124.63
2023-02-09T10:48:41.806Z,100121.81
2023-02-09T10:51:15.942Z,100114.50
2023-02-09T10:54:03.385Z,100108.25
2023-02-09T10:56:35.896Z,100099.88
2023-02-09T10:59:25.401Z,100088.63
2023-02-09T11:02:03.654Z,100085.81
2023-02-09T11:04:40.485Z,100079.47
2023-02-09T11:07:12.676Z,100079.28
2023-02-09T11:09:45.725Z,100073.94
2023-02-09T11:12:14.154Z,100070.19
2023-02-09T11:14:44.406Z,100072.41
2023-02-09T11:17:37.435Z,100080.69
2023-02-09T11:20:22.058Z,100075.56
2023-02-09T11:22:49.719Z,100067.75
2023-02-09T11:25:19.571Z,100066.75
2023-02-09T11:28:22.009Z,100054.31
2023-02-09T11:31:20.815Z,100063.66
2023-02-09T11:34:17.660Z,100060.75
2023-02-09T11:36:51.371Z,100049.66
2023-02-09T11:39:40.093Z,100050.81
2023-02-09T11:42:30.673Z,100041.38
2023-02-09T11:45:03.515Z,100041.47
2023-02-09T11:47:49.441Z,100039.88
2023-02-09T11:50:48.044Z,100036.44
2023-02-09T11:53:42.846Z,100030.88
2023-02-09T11:56:14.067Z,100028.94
2023-02-09T11:58:55.878Z,100029.81
2023-02-09T12:01:26.012Z,100027.22
2023-02-09T12:03:57.734Z,100027.97
2023-02-09T12:06:26.991Z,100028.81
2023-02-09T12:09:04.161Z,100031.19
2023-02-09T12:11:42.374Z,100028.09
2023-02-09T12:14:16.964Z,100030.41
2023-02-09T12:16:52.445Z,100024.16
2023-02-09T12:19:27.063Z,100016.44
2023-02-09T12:21:54.716Z,100011.06
2023-02-09T12:24:39.594Z,100006.72
2023-02-09T12:27:26.477Z,100008.44
2023-02-09T12:29:54.534Z,100002.91
2023-02-09T12:32:41.365Z,100003.88
2023-02-09T12:35:27.060Z,99999.06
2023-02-09T12:38:19.844Z,99999.28
2023-02-09T12:41:05.083Z,99998.38
2023-02-09T12:43:35.676Z,99988.91
2023-02-09T12:46:14.407Z,100001.91
2023-02-09T12:49:12.666Z,99987.31
2023-02-09T12:51:44.556Z,99985.50
2023-02-09T12:54:28.875Z,99990.41
2023-02-09T12:56:58.383Z,99986.78
2023-02-09T12:59:27.392Z,99984.38
2023-02-09T13:02:16.047Z,99980.59
2023-02-09T13:05:13.617Z,99970.25
2023-02-09T13:07:55.835Z,99977.97
2023-02-09T13:10:43.013Z,99974.84
2023-02-09T13:13:12.613Z,99968.53
2023-02-09T13:16:19.857Z,99967.31
2023-02-09T13:19:06.509Z,99965.38
2023-02-09T13:22:05.303Z,99962.09
2023-02-09T13:24:52.958Z,99959.91
2023-02-09T13:27:23.631Z,99956.31
2023-02-09T13:29:53.930Z,99954.38
2023-02-09T13:32:44.914Z,99954.16
2023-02-09T13:35:24.453Z,99946.00
2023-02-09T13:37:57.166Z,99950.50
2023-02-09T13:40:34.232Z,99951.03
2023-02-09T13:43:20.427Z,99951.44
2023-02-09T13:45:50.456Z,99945.16
2023-02-09T13:48:29.730Z,99951.78
2023-02-09T13:51:01.826Z,99950.75
2023-02-09T13:53:32.087Z,99947.50
2023-02-09T13:56:02.791Z,99951.06
2023-02-09T13:58:36.150Z,99949.06
2023-02-09T14:01:10.073Z,99941.66
2023-02-09T14:03:57.524Z,99943.31
2023-02-09T14:06:37.574Z,99938.69
2023-02-09T14:09:11.961Z,99938.38
2023-02-09T14:11:43.793Z,99935.66
2023-02-09T14:14:12.753Z,99948.41
2023-02-09T14:16:52.676Z,99947.44
2023-02-09T14:19:28.474Z,99953.22
2023-02-09T14:21:55.504Z,99953.59
2023-02-09T14:24:25.234Z,99950.66
2023-02-09T14:26:55.629Z,99947.50
2023-02-09T14:29:27.922Z,99945.25
2023-02-09T14:31:59.834Z,99939.50
2023-02-09T14:34:38.976Z,99947.53
2023-02-09T14:37:29.665Z,99941.41
2023-02-09T14:40:21.858Z,99945.28
2023-02-09T14:43:23.116Z,99944.66
2023-02-09T14:46:02.087Z,99942.06
2023-02-09T14:48:31.949Z,99943.72
2023-02-09T14:51:11.643Z,99953.69
2023-02-09T14:53:43.172Z,99953.03
2023-02-09T14:56:31.104Z,99954.44
2023-02-09T14:59:00.930Z,99951.66
2023-02-09T15:01:29.456Z,99947.84
2023-02-09T15:03:57.624Z,99948.53
2023-02-09T15:06:33.517Z,99944.03
2023-02-09T15:09:05.913Z,99946.97
2023-02-09T15:11:51.976Z,99949.44
2023-02-09T15:14:26.141Z,99952.75
2023-02-09T15:16:57.090Z,99952.16
2023-02-09T15:19:26.942Z,99952.56
2023-02-09T15:22:06.665Z,99954.44
2023-02-09T15:24:37.796Z,99953.50
2023-02-09T15:27:06.528Z,99964.00
2023-02-09T15:29:35.122Z,99967.97
2023-02-09T15:32:05.355Z,99968.94
2023-02-09T15:34:34.479Z,99960.66
2023-02-09T15:37:04.241Z,99968.38
2023-02-09T15:39:32.844Z,99971.69
2023-02-09T15:42:20.582Z,99974.13
2023-02-09T15:45:06.754Z,99970.22
2023-02-09T15:47:53.571Z,99979.22
2023-02-09T15:50:22.471Z,99974.34
2023-02-09T15:52:50.585Z,99983.06
2023-02-09T15:55:21.153Z,99977.22
2023-02-09T15:57:52.674Z,99976.91
2023-02-09T16:00:24.944Z,99975.44
2023-02-09T16:02:55.443Z,99988.53
2023-02-09T16:05:27.365Z,99984.19
2023-02-09T16:07:57.633Z,99990.84
2023-02-09T16:10:30.973Z,99996.44
2023-02-09T16:13:02.838Z,100002.34
2023-02-09T16:15:30.792Z,99993.84
2023-02-09T16:17:59.450Z,100003.28
2023-02-09T16:20:29.649Z,100004.50
2023-02-09T16:23:15.215Z,100007.84
2023-02-09T16:25:51.624Z,100015.41
2023-02-09T16:28:23.011Z,100024.34
2023-02-09T16:30:52.744Z,100023.03
2023-02-09T16:33:22.317Z,100019.19
2023-02-09T16:36:00.206Z,100020.41
2023-02-09T16:38:29.427Z,100022.16
2023-02-09T16:40:57.742Z,100019.13
2023-02-09T16:43:26.220Z,100019.50
2023-02-09T16:46:03.340Z,100018.81
2023-02-09T16:48:35.333Z,100025.09
2023-02-09T16:51:04.270Z,100023.56
2023-02-09T16:53:37.998Z,100026.81
2023-02-09T16:56:10.459Z,100024.13
2023-02-09T16:58:39.693Z,100030.91
2023-02-09T17:01:18.053Z,100034.56
2023-02-09T17:03:48.393Z,100033.97
2023-02-09T17:06:23.960Z,100040.28
2023-02-09T17:08:53.795Z,100044.09
2023-02-09T17:11:25.244Z,100033.94
2023-02-09T17:13:53.581Z,100050.47
2023-02-09T17:16:29.149Z,100052.88
2023-02-09T17:19:01.111Z,100057.19
2023-02-09T17:21:32.829Z,100052.81
2023-02-09T17:24:01.108Z,100062.59
2023-02-09T17:26:29.322Z,100057.59
2023-02-09T17:28:57.622Z,100060.25
2023-02-09T17:31:36.133Z,100056.56
2023-02-09T17:34:09.939Z,100056.81
2023-02-09T17:36:38.433Z,100056.09
2023-02-09T17:39:06.619Z,100049.59
2023-02-09T17:41:45.673Z,100059.44
2023-02-09T17:44:31.596Z,100066.28
2023-02-09T17:47:04.853Z,100064.78
2023-02-09T17:49:34.995Z,100062.53
2023-02-09T17:52:03.247Z,100062.97
2023-02-09T17:54:33.784Z,100070.13
2023-02-09T17:57:03.520Z,100066.66
2023-02-09T17:59:31.531Z,100073.63
2023-02-09T18:01:59.507Z,100068.53
2023-02-09T18:04:29.414Z,100066.19
2023-02-09T18:06:58.898Z,100066.19
2023-02-09T18:09:27.653Z,100074.28
2023-02-09T18:11:59.928Z,100062.56
2023-02-09T18:14:29.820Z,100073.78
2023-02-09T18:16:58.885Z,100068.47
2023-02-09T18:19:26.438Z,100067.03
2023-02-09T18:21:57.967Z,100067.28
2023-02-09T18:24:29.433Z,100068.53
2023-02-09T18:26:57.159Z,100063.31
2023-02-09T18:29:29.641Z,100073.38
2023-02-09T18:32:01.071Z,100070.34
2023-02-09T18:34:30.204Z,100081.03
2023-02-09T18:36:58.630Z,100080.31
2023-02-09T18:39:26.702Z,100077.81
2023-02-09T18:41:55.098Z,100080.41
2023-02-09T18:44:29.753Z,100075.31
2023-02-09T18:47:00.766Z,100073.91
2023-02-09T18:49:29.541Z,100075.88
2023-02-09T18:51:59.350Z,100077.78
2023-02-09T18:54:29.239Z,100078.09
2023-02-09T18:56:57.616Z,100074.78
2023-02-09T18:59:30.580Z,100081.63
2023-02-09T19:01:59.558Z,100086.97
2023-02-09T19:04:27.417Z,100090.59
2023-02-09T19:06:55.570Z,100093.44
2023-02-09T19:09:24.826Z,100091.56
2023-02-09T19:11:51.753Z,100103.78
2023-02-09T19:14:35.270Z,100100.78
2023-02-09T19:17:03.643Z,100109.34
2023-02-09T19:19:33.629Z,100100.09
2023-02-09T19:22:00.655Z,100102.81
2023-02-09T19:24:29.208Z,100109.69
2023-02-09T19:26:57.233Z,100099.28
2023-02-09T19:29:26.223Z,100100.50
2023-02-09T19:31:55.502Z,100099.69
2023-02-09T19:34:24.287Z,100106.06
2023-02-09T19:36:51.896Z,100101.16
2023-02-09T19:39:20.904Z,100098.78
2023-02-09T19:41:50.139Z,100111.47
2023-02-09T19:44:17.607Z,100108.88
2023-02-09T19:46:47.531Z,100110.22
2023-02-09T19:49:19.661Z,100114.31
2023-02-09T19:51:47.026Z,100114.19
2023-02-09T19:54:14.553Z,100109.50
2023-02-09T19:56:45.223Z,100115.56
2023-02-09T19:59:13.883Z,100115.00
2023-02-09T20:01:41.980Z,100117.81
2023-02-09T20:04:09.659Z,100114.94
2023-02-09T20:06:38.654Z,100121.88
2023-02-09T20:09:06.708Z,100116.50
2023-02-09T20:11:35.820Z,100116.78
2023-02-09T20:14:06.343Z,100116.69
2023-02-09T20:16:34.788Z,100114.81
2023-02-09T20:19:02.433Z,100112.00
2023-02-09T20:21:30.855Z,100116.16
2023-02-09T20:23:59.413Z,100123.22
2023-02-09T20:26:30.428Z,100113.84
2023-02-09T20:28:58.549Z,100114.91
2023-02-09T20:31:30.171Z,100110.72
2023-02-09T20:33:59.393Z,100115.75
2023-02-09T20:36:27.152Z,100117.19
2023-02-09T20:38:56.084Z,100121.72
2023-02-09T20:41:24.206Z,100120.59
2023-02-09T20:44:08.319Z,100119.25
2023-02-09T20:46:56.902Z,100119.63
2023-02-09T20:49:31.924Z,100122.22
2023-02-09T20:51:59.532Z,100122.75
2023-02-09T20:54:28.589Z,100114.16
2023-02-09T20:56:58.436Z,100115.53
2023-02-09T20:59:26.581Z,100112.41
2023-02-09T21:01:53.794Z,100116.28
2023-02-09T21:04:21.501Z,100124.88
2023-02-09T21:06:49.881Z,100123.03
2023-02-09T21:09:20.263Z,100128.31
2023-02-09T21:11:48.775Z,100126.03
2023-02-09T21:14:27.206Z,100125.19
2023-02-09T21:17:05.995Z,100122.50
2023-02-09T21:19:35.702Z,100130.13
2023-02-09T21:22:04.638Z,100130.66
2023-02-09T21:24:32.244Z,100130.63
2023-02-09T21:27:00.952Z,100134.78
2023-02-09T21:29:30.221Z,100136.09
2023-02-09T21:32:02.437Z,100130.38
2023-02-09T21:34:32.209Z,100134.25
2023-02-09T21:36:59.186Z,100139.81
2023-02-09T21:39:27.869Z,100138.97
2023-02-09T21:42:11.046Z,100139.06
2023-02-09T21:44:38.817Z,100138.16
2023-02-09T21:47:07.362Z,100132.44
2023-02-09T21:49:36.197Z,100135.03
2023-02-09T21:52:04.806Z,100141.53
2023-02-09T21:54:34.550Z,100142.72
2023-02-09T21:57:04.337Z,100151.94
2023-02-09T21:59:32.804Z,100152.19
2023-02-09T22:02:02.416Z,100153.56
2023-02-09T22:04:29.894Z,100150.63
2023-02-09T22:06:58.255Z,100159.53
2023-02-09T22:09:26.453Z,100152.22
2023-02-09T22:11:55.050Z,100160.28
2023-02-09T22:14:24.108Z,100159.44
2023-02-09T22:16:51.892Z,100163.31
2023-02-09T22:19:19.795Z,100170.19
2023-02-09T22:21:47.882Z,100172.22
2023-02-09T22:24:17.038Z,100170.09
2023-02-09T22:26:46.261Z,100170.75
2023-02-09T22:29:14.823Z,100172.13
2023-02-09T22:31:42.606Z,100176.66
2023-02-09T22:34:10.135Z,100175.38
2023-02-09T22:36:40.436Z,100179.91
2023-02-09T22:39:08.293Z,100173.44
2023-02-09T22:41:36.380Z,100189.25
2023-02-09T22:44:09.036Z,100190.16
2023-02-09T22:46:39.531Z,100185.63
2023-02-09T22:49:09.883Z,100186.19
2023-02-09T22:51:38.818Z,100181.94
2023-02-09T22:54:08.193Z,100183.59
2023-02-09T22:56:37.477Z,100191.16
2023-02-09T22:59:06.160Z,100198.22
2023-02-09T23:01:35.239Z,100195.72
2023-02-09T23:04:02.374Z,100196.34
2023-02-09T23:06:31.790Z,100199.31
2023-02-09T23:09:02.547Z,100197.44
2023-02-09T23:11:32.155Z,100197.09
2023-02-09T23:14:09.629Z,100194.66
2023-02-09T23:16:40.290Z,100192.31
2023-02-09T23:19:11.036Z,100191.97
2023-02-09T23:21:41.818Z,100192.72
2023-02-09T23:24:10.361Z,100189.94
2023-02-09T23:26:38.487Z,100194.09
2023-02-09T23:29:09.807Z,100193.25
2023-02-09T23:31:38.002Z,100194.22
2023-02-09T23:34:06.700Z,100192.44
2023-02-09T23:36:36.343Z,100195.22
2023-02-09T23:39:07.914Z,100190.28
2023-02-09T23:41:37.580Z,100196.66
2023-02-09T23:44:06.767Z,100195.19
2023-02-09T23:46:34.751Z,100204.88
2023-02-09T23:49:03.778Z,100202.38
2023-02-09T23:51:40.488Z,100210.66
2023-02-09T23:54:08.558Z,100209.38
2023-02-09T23:56:38.086Z,100209.16
2023-02-09T23:59:08.594Z,100210.56
